sensor_id;sensor_type;location;lat;lon;timestamp;pressure;altitude;pressure_sealevel;temperature;humidity
73910;BME280;62245;48.070;7.874;2023-07-02T00:01:49;98607.19;;;18.66;89.52
73910;BME280;62245;48.070;7.874;2023-07-02T00:04:15;98598.81;;;18.68;89.39
73910;BME280;62245;48.070;7.874;2023-07-02T00:06:51;98610.44;;;18.73;89.21
73910;BME280;62245;48.070;7.874;2023-07-02T00:09:25;98606.09;;;18.72;89.13
73910;BME280;62245;48.070;7.874;2023-07-02T00:11:56;98609.63;;;18.68;89.55
73910;BME280;62245;48.070;7.874;2023-07-02T00:14:25;98610.97;;;18.70;89.53
73910;BME280;62245;48.070;7.874;2023-07-02T00:17:00;98601.22;;;18.69;89.46
73910;BME280;62245;48.070;7.874;2023-07-02T00:19:28;98600.72;;;18.67;89.45
73910;BME280;62245;48.070;7.874;2023-07-02T00:22:02;98601.53;;;18.68;89.15
73910;BME280;62245;48.070;7.874;2023-07-02T00:24:32;98603.94;;;18.64;89.56
73910;BME280;62245;48.070;7.874;2023-07-02T00:27:03;98602.59;;;18.62;89.92
73910;BME280;62245;48.070;7.874;2023-07-02T00:29:29;98607.72;;;18.63;89.57
73910;BME280;62245;48.070;7.874;2023-07-02T00:31:54;98607.75;;;18.58;89.63
73910;BME280;62245;48.070;7.874;2023-07-02T00:34:27;98604.75;;;18.55;89.95
73910;BME280;62245;48.070;7.874;2023-07-02T00:37:06;98600.97;;;18.61;89.30
73910;BME280;62245;48.070;7.874;2023-07-02T00:39:34;98598.56;;;18.59;89.60
73910;BME280;62245;48.070;7.874;2023-07-02T00:42:07;98602.31;;;18.63;89.34
73910;BME280;62245;48.070;7.874;2023-07-02T00:44:36;98598.81;;;18.63;89.33
73910;BME280;62245;48.070;7.874;2023-07-02T00:47:11;98600.72;;;18.57;89.55
73910;BME280;62245;48.070;7.874;2023-07-02T00:49:45;98601.25;;;18.64;89.44
73910;BME280;62245;48.070;7.874;2023-07-02T00:52:13;98608.00;;;18.67;89.06
73910;BME280;62245;48.070;7.874;2023-07-02T00:54:49;98609.91;;;18.66;89.12
73910;BME280;62245;48.070;7.874;2023-07-02T00:57:40;98613.41;;;18.62;89.43
73910;BME280;62245;48.070;7.874;2023-07-02T01:00:14;98617.47;;;18.64;89.26
73910;BME280;62245;48.070;7.874;2023-07-02T01:02:43;98610.72;;;18.67;89.34
73910;BME280;62245;48.070;7.874;2023-07-02T01:05:28;98609.91;;;18.66;89.50
73910;BME280;62245;48.070;7.874;2023-07-02T01:08:08;98601.78;;;18.71;89.32
73910;BME280;62245;48.070;7.874;2023-07-02T01:10:33;98605.84;;;18.64;89.46
73910;BME280;62245;48.070;7.874;2023-07-02T01:13:06;98603.41;;;18.62;89.38
73910;BME280;62245;48.070;7.874;2023-07-02T01:15:40;98616.09;;;18.62;89.59
73910;BME280;62245;48.070;7.874;2023-07-02T01:18:07;98605.84;;;18.64;89.26
73910;BME280;62245;48.070;7.874;2023-07-02T01:20:36;98608.50;;;18.54;90.02
73910;BME280;62245;48.070;7.874;2023-07-02T01:23:06;98619.06;;;18.60;89.67
73910;BME280;62245;48.070;7.874;2023-07-02T01:25:35;98618.81;;;18.62;89.61
73910;BME280;62245;48.070;7.874;2023-07-02T01:28:02;98618.56;;;18.58;89.76
73910;BME280;62245;48.070;7.874;2023-07-02T01:30:30;98614.47;;;18.56;89.69
73910;BME280;62245;48.070;7.874;2023-07-02T01:32:58;98623.38;;;18.51;90.10
73910;BME280;62245;48.070;7.874;2023-07-02T01:35:31;98626.09;;;18.46;90.91
73910;BME280;62245;48.070;7.874;2023-07-02T01:37:59;98626.91;;;18.46;90.62
73910;BME280;62245;48.070;7.874;2023-07-02T01:40:34;98625.28;;;18.45;90.75
73910;BME280;62245;48.070;7.874;2023-07-02T01:43:07;98630.41;;;18.47;90.87
73910;BME280;62245;48.070;7.874;2023-07-02T01:45:40;98629.06;;;18.50;90.69
73910;BME280;62245;48.070;7.874;2023-07-02T01:48:06;98629.34;;;18.48;90.62
73910;BME280;62245;48.070;7.874;2023-07-02T01:50:37;98639.06;;;18.49;90.82
73910;BME280;62245;48.070;7.874;2023-07-02T01:53:02;98632.28;;;18.46;90.64
73910;BME280;62245;48.070;7.874;2023-07-02T01:55:30;98631.22;;;18.47;90.76
73910;BME280;62245;48.070;7.874;2023-07-02T01:57:55;98634.19;;;18.46;90.68
73910;BME280;62245;48.070;7.874;2023-07-02T02:00:21;98632.28;;;18.46;90.66
73910;BME280;62245;48.070;7.874;2023-07-02T02:02:46;98643.38;;;18.45;90.68
73910;BME280;62245;48.070;7.874;2023-07-02T02:05:11;98648.25;;;18.48;90.70
73910;BME280;62245;48.070;7.874;2023-07-02T02:07:36;98650.94;;;18.48;90.75
73910;BME280;62245;48.070;7.874;2023-07-02T02:10:03;98646.06;;;18.40;90.88
73910;BME280;62245;48.070;7.874;2023-07-02T02:12:29;98657.44;;;18.42;91.10
73910;BME280;62245;48.070;7.874;2023-07-02T02:14:55;98660.13;;;18.47;91.05
73910;BME280;62245;48.070;7.874;2023-07-02T02:17:20;98666.59;;;18.51;90.54
73910;BME280;62245;48.070;7.874;2023-07-02T02:19:46;98672.53;;;18.53;90.64
73910;BME280;62245;48.070;7.874;2023-07-02T02:22:11;98664.44;;;18.43;91.38
73910;BME280;62245;48.070;7.874;2023-07-02T02:24:36;98667.13;;;18.38;91.39
73910;BME280;62245;48.070;7.874;2023-07-02T02:27:01;98672.53;;;18.38;91.30
73910;BME280;62245;48.070;7.874;2023-07-02T02:29:27;98662.81;;;18.32;91.53
73910;BME280;62245;48.070;7.874;2023-07-02T02:31:52;98669.81;;;18.43;90.90
73910;BME280;62245;48.070;7.874;2023-07-02T02:34:17;98674.72;;;18.41;91.25
73910;BME280;62245;48.070;7.874;2023-07-02T02:36:42;98670.91;;;18.37;91.46
73910;BME280;62245;48.070;7.874;2023-07-02T02:39:08;98676.06;;;18.38;90.95
73910;BME280;62245;48.070;7.874;2023-07-02T02:41:34;98675.78;;;18.40;91.19
73910;BME280;62245;48.070;7.874;2023-07-02T02:43:59;98682.81;;;18.41;90.98
73910;BME280;62245;48.070;7.874;2023-07-02T02:46:24;98677.94;;;18.38;90.67
73910;BME280;62245;48.070;7.874;2023-07-02T02:48:50;98677.13;;;18.37;90.50
73910;BME280;62245;48.070;7.874;2023-07-02T02:51:16;98673.34;;;18.28;90.74
73910;BME280;62245;48.070;7.874;2023-07-02T02:53:41;98675.25;;;18.33;90.44
73910;BME280;62245;48.070;7.874;2023-07-02T02:56:07;98676.84;;;18.29;90.38
73910;BME280;62245;48.070;7.874;2023-07-02T02:58:32;98680.34;;;18.29;90.14
73910;BME280;62245;48.070;7.874;2023-07-02T03:00:57;98682.22;;;18.19;90.25
73910;BME280;62245;48.070;7.874;2023-07-02T03:03:22;98684.41;;;18.22;90.30
73910;BME280;62245;48.070;7.874;2023-07-02T03:05:49;98686.00;;;18.18;89.83
73910;BME280;62245;48.070;7.874;2023-07-02T03:08:15;98683.31;;;18.23;89.81
73910;BME280;62245;48.070;7.874;2023-07-02T03:10:40;98684.09;;;18.18;89.82
73910;BME280;62245;48.070;7.874;2023-07-02T03:13:05;98676.84;;;18.24;89.30
73910;BME280;62245;48.070;7.874;2023-07-02T03:15:30;98683.59;;;18.26;88.96
73910;BME280;62245;48.070;7.874;2023-07-02T03:17:56;98680.63;;;18.23;89.37
73910;BME280;62245;48.070;7.874;2023-07-02T03:20:21;98680.34;;;18.19;89.02
73910;BME280;62245;48.070;7.874;2023-07-02T03:22:46;98680.91;;;18.16;88.90
73910;BME280;62245;48.070;7.874;2023-07-02T03:25:12;98681.69;;;18.12;88.59
73910;BME280;62245;48.070;7.874;2023-07-02T03:27:37;98691.13;;;18.14;88.82
73910;BME280;62245;48.070;7.874;2023-07-02T03:30:03;98686.00;;;18.13;87.90
73910;BME280;62245;48.070;7.874;2023-07-02T03:32:29;98684.38;;;18.12;87.27
73910;BME280;62245;48.070;7.874;2023-07-02T03:34:54;98692.75;;;18.15;86.81
73910;BME280;62245;48.070;7.874;2023-07-02T03:37:19;98684.94;;;18.19;86.33
73910;BME280;62245;48.070;7.874;2023-07-02T03:39:45;98693.56;;;18.21;85.65
73910;BME280;62245;48.070;7.874;2023-07-02T03:42:10;98686.81;;;18.18;84.86
73910;BME280;62245;48.070;7.874;2023-07-02T03:44:35;98688.47;;;18.24;84.63
73910;BME280;62245;48.070;7.874;2023-07-02T03:47:00;98686.56;;;18.20;84.28
73910;BME280;62245;48.070;7.874;2023-07-02T03:49:26;98694.38;;;18.21;83.66
73910;BME280;62245;48.070;7.874;2023-07-02T03:51:51;98694.69;;;18.25;83.48
73910;BME280;62245;48.070;7.874;2023-07-02T03:54:17;98689.78;;;18.17;82.98
73910;BME280;62245;48.070;7.874;2023-07-02T03:56:43;98695.19;;;18.22;82.33
73910;BME280;62245;48.070;7.874;2023-07-02T03:59:08;98707.06;;;18.26;81.79
73910;BME280;62245;48.070;7.874;2023-07-02T04:01:33;98694.09;;;18.18;81.17
73910;BME280;62245;48.070;7.874;2023-07-02T04:03:58;98706.00;;;18.22;80.70
73910;BME280;62245;48.070;7.874;2023-07-02T04:06:24;98705.19;;;18.21;80.60
73910;BME280;62245;48.070;7.874;2023-07-02T04:08:49;98713.03;;;18.23;80.20
73910;BME280;62245;48.070;7.874;2023-07-02T04:11:14;98716.25;;;18.20;80.04
73910;BME280;62245;48.070;7.874;2023-07-02T04:13:40;98717.63;;;18.22;79.19
73910;BME280;62245;48.070;7.874;2023-07-02T04:16:06;98725.97;;;18.21;78.82
73910;BME280;62245;48.070;7.874;2023-07-02T04:18:31;98733.00;;;18.22;78.45
73910;BME280;62245;48.070;7.874;2023-07-02T04:20:57;98734.06;;;18.26;78.28
73910;BME280;62245;48.070;7.874;2023-07-02T04:23:23;98725.44;;;18.19;78.19
73910;BME280;62245;48.070;7.874;2023-07-02T04:25:49;98731.13;;;18.22;77.92
73910;BME280;62245;48.070;7.874;2023-07-02T04:28:14;98729.50;;;18.21;77.80
73910;BME280;62245;48.070;7.874;2023-07-02T04:30:39;98731.94;;;18.23;77.73
73910;BME280;62245;48.070;7.874;2023-07-02T04:33:05;98734.06;;;18.21;77.84
73910;BME280;62245;48.070;7.874;2023-07-02T04:35:31;98744.06;;;18.20;77.31
73910;BME280;62245;48.070;7.874;2023-07-02T04:37:56;98739.22;;;18.22;77.37
73910;BME280;62245;48.070;7.874;2023-07-02T04:40:22;98737.06;;;18.24;77.33
73910;BME280;62245;48.070;7.874;2023-07-02T04:42:47;98744.63;;;18.22;77.50
73910;BME280;62245;48.070;7.874;2023-07-02T04:45:14;98740.03;;;18.23;76.84
73910;BME280;62245;48.070;7.874;2023-07-02T04:47:44;98745.94;;;18.20;77.04
73910;BME280;62245;48.070;7.874;2023-07-02T04:50:09;98755.13;;;18.19;77.11
73910;BME280;62245;48.070;7.874;2023-07-02T04:52:35;98760.00;;;18.22;76.57
73910;BME280;62245;48.070;7.874;2023-07-02T04:55:02;98755.69;;;18.16;76.63
73910;BME280;62245;48.070;7.874;2023-07-02T04:57:27;98752.69;;;18.17;77.02
73910;BME280;62245;48.070;7.874;2023-07-02T04:59:53;98753.50;;;18.18;77.14
73910;BME280;62245;48.070;7.874;2023-07-02T05:02:19;98761.06;;;18.16;77.04
73910;BME280;62245;48.070;7.874;2023-07-02T05:04:45;98754.56;;;18.12;77.20
73910;BME280;62245;48.070;7.874;2023-07-02T05:07:10;98751.88;;;18.17;76.96
73910;BME280;62245;48.070;7.874;2023-07-02T05:09:35;98756.19;;;18.13;76.86
73910;BME280;62245;48.070;7.874;2023-07-02T05:12:01;98757.81;;;18.19;76.76
73910;BME280;62245;48.070;7.874;2023-07-02T05:14:26;98764.03;;;18.14;76.51
73910;BME280;62245;48.070;7.874;2023-07-02T05:16:51;98764.28;;;18.13;76.42
73910;BME280;62245;48.070;7.874;2023-07-02T05:19:16;98780.50;;;18.18;76.20
73910;BME280;62245;48.070;7.874;2023-07-02T05:21:42;98775.66;;;18.15;76.14
73910;BME280;62245;48.070;7.874;2023-07-02T05:24:08;98777.28;;;18.21;75.74
73910;BME280;62245;48.070;7.874;2023-07-02T05:26:34;98775.66;;;18.15;76.17
73910;BME280;62245;48.070;7.874;2023-07-02T05:28:59;98779.94;;;18.10;76.04
73910;BME280;62245;48.070;7.874;2023-07-02T05:31:24;98783.19;;;18.13;75.63
73910;BME280;62245;48.070;7.874;2023-07-02T05:33:49;98787.25;;;18.15;75.79
73910;BME280;62245;48.070;7.874;2023-07-02T05:36:15;98790.78;;;18.21;75.24
73910;BME280;62245;48.070;7.874;2023-07-02T05:38:40;98798.31;;;18.19;75.21
73910;BME280;62245;48.070;7.874;2023-07-02T05:41:05;98795.91;;;18.22;75.26
73910;BME280;62245;48.070;7.874;2023-07-02T05:43:31;98786.50;;;18.25;75.16
73910;BME280;62245;48.070;7.874;2023-07-02T05:45:58;98791.34;;;18.28;74.23
73910;BME280;62245;48.070;7.874;2023-07-02T05:48:27;98791.91;;;18.30;74.45
73910;BME280;62245;48.070;7.874;2023-07-02T05:50:52;98804.84;;;18.28;74.44
73910;BME280;62245;48.070;7.874;2023-07-02T05:53:18;98805.41;;;18.30;73.99
73910;BME280;62245;48.070;7.874;2023-07-02T05:55:43;98793.78;;;18.29;74.02
73910;BME280;62245;48.070;7.874;2023-07-02T05:58:09;98814.06;;;18.32;73.12
73910;BME280;62245;48.070;7.874;2023-07-02T06:00:34;98819.44;;;18.32;73.22
73910;BME280;62245;48.070;7.874;2023-07-02T06:03:00;98811.09;;;18.33;72.90
73910;BME280;62245;48.070;7.874;2023-07-02T06:05:25;98811.63;;;18.35;72.98
73910;BME280;62245;48.070;7.874;2023-07-02T06:07:50;98816.19;;;18.35;72.33
73910;BME280;62245;48.070;7.874;2023-07-02T06:10:16;98810.56;;;18.41;72.75
73910;BME280;62245;48.070;7.874;2023-07-02T06:12:42;98820.00;;;18.39;71.83
73910;BME280;62245;48.070;7.874;2023-07-02T06:15:08;98810.56;;;18.41;71.37
73910;BME280;62245;48.070;7.874;2023-07-02T06:17:34;98818.09;;;18.34;71.70
73910;BME280;62245;48.070;7.874;2023-07-02T06:19:59;98819.50;;;18.42;71.61
73910;BME280;62245;48.070;7.874;2023-07-02T06:22:24;98823.00;;;18.47;71.57
73910;BME280;62245;48.070;7.874;2023-07-02T06:24:50;98823.28;;;18.46;70.88
73910;BME280;62245;48.070;7.874;2023-07-02T06:27:15;98819.78;;;18.51;71.43
73910;BME280;62245;48.070;7.874;2023-07-02T06:29:40;98837.41;;;18.58;70.92
73910;BME280;62245;48.070;7.874;2023-07-02T06:32:06;98838.41;;;18.47;71.13
73910;BME280;62245;48.070;7.874;2023-07-02T06:34:31;98833.31;;;18.51;71.27
73910;BME280;62245;48.070;7.874;2023-07-02T06:36:56;98843.88;;;18.57;71.49
73910;BME280;62245;48.070;7.874;2023-07-02T06:39:21;98843.63;;;18.59;70.91
73910;BME280;62245;48.070;7.874;2023-07-02T06:41:47;98840.84;;;18.48;70.75
73910;BME280;62245;48.070;7.874;2023-07-02T06:44:12;98841.94;;;18.53;70.64
73910;BME280;62245;48.070;7.874;2023-07-02T06:46:37;98843.31;;;18.60;70.66
73910;BME280;62245;48.070;7.874;2023-07-02T06:49:02;98847.13;;;18.59;69.61
73910;BME280;62245;48.070;7.874;2023-07-02T06:51:28;98845.53;;;18.73;69.49
73910;BME280;62245;48.070;7.874;2023-07-02T06:53:54;98829.31;;;18.78;69.13
73910;BME280;62245;48.070;7.874;2023-07-02T06:56:19;98845.84;;;18.97;69.37
73910;BME280;62245;48.070;7.874;2023-07-02T06:58:45;98846.41;;;19.14;68.60
73910;BME280;62245;48.070;7.874;2023-07-02T07:01:10;98857.22;;;19.25;67.61
73910;BME280;62245;48.070;7.874;2023-07-02T07:03:35;98852.63;;;19.20;66.09
73910;BME280;62245;48.070;7.874;2023-07-02T07:06:01;98855.88;;;19.17;66.64
73910;BME280;62245;48.070;7.874;2023-07-02T07:08:27;98869.66;;;19.31;67.00
73910;BME280;62245;48.070;7.874;2023-07-02T07:10:53;98874.53;;;19.13;67.23
73910;BME280;62245;48.070;7.874;2023-07-02T07:13:18;98862.34;;;19.06;67.98
73910;BME280;62245;48.070;7.874;2023-07-02T07:15:43;98870.47;;;19.01;67.59
73910;BME280;62245;48.070;7.874;2023-07-02T07:18:09;98873.72;;;19.08;68.05
73910;BME280;62245;48.070;7.874;2023-07-02T07:20:34;98862.09;;;19.17;67.81
73910;BME280;62245;48.070;7.874;2023-07-02T07:23:02;98868.88;;;19.25;67.12
73910;BME280;62245;48.070;7.874;2023-07-02T07:25:27;98864.53;;;19.24;66.42
73910;BME280;62245;48.070;7.874;2023-07-02T07:27:52;98866.16;;;19.35;66.98
73910;BME280;62245;48.070;7.874;2023-07-02T07:30:19;98855.06;;;19.32;66.32
73910;BME280;62245;48.070;7.874;2023-07-02T07:32:50;98856.16;;;19.46;66.11
73910;BME280;62245;48.070;7.874;2023-07-02T07:35:17;98861.84;;;19.49;64.92
73910;BME280;62245;48.070;7.874;2023-07-02T07:37:43;98861.03;;;19.64;65.52
73910;BME280;62245;48.070;7.874;2023-07-02T07:40:08;98867.78;;;19.67;64.70
73910;BME280;62245;48.070;7.874;2023-07-02T07:42:33;98859.16;;;19.54;64.96
73910;BME280;62245;48.070;7.874;2023-07-02T07:44:59;98858.88;;;19.46;64.80
73910;BME280;62245;48.070;7.874;2023-07-02T07:47:24;98859.69;;;19.62;64.20
73910;BME280;62245;48.070;7.874;2023-07-02T07:49:49;98862.38;;;19.77;63.68
73910;BME280;62245;48.070;7.874;2023-07-02T07:52:14;98865.88;;;19.72;63.21
73910;BME280;62245;48.070;7.874;2023-07-02T07:54:40;98862.41;;;19.72;62.44
73910;BME280;62245;48.070;7.874;2023-07-02T07:57:06;98858.03;;;19.86;62.29
73910;BME280;62245;48.070;7.874;2023-07-02T07:59:32;98861.00;;;19.94;61.48
73910;BME280;62245;48.070;7.874;2023-07-02T08:01:57;98859.13;;;19.80;62.17
73910;BME280;62245;48.070;7.874;2023-07-02T08:04:22;98862.34;;;19.97;61.55
73910;BME280;62245;48.070;7.874;2023-07-02T08:06:48;98856.94;;;19.97;61.76
73910;BME280;62245;48.070;7.874;2023-07-02T08:09:13;98851.22;;;20.04;61.51
73910;BME280;62245;48.070;7.874;2023-07-02T08:11:38;98855.78;;;20.13;61.49
73910;BME280;62245;48.070;7.874;2023-07-02T08:14:03;98847.41;;;20.15;60.84
73910;BME280;62245;48.070;7.874;2023-07-02T08:16:29;98852.00;;;20.14;59.98
73910;BME280;62245;48.070;7.874;2023-07-02T08:18:54;98849.63;;;19.98;60.78
73910;BME280;62245;48.070;7.874;2023-07-02T08:21:19;98861.44;;;20.17;61.05
73910;BME280;62245;48.070;7.874;2023-07-02T08:23:44;98865.00;;;20.12;60.47
73910;BME280;62245;48.070;7.874;2023-07-02T08:26:10;98855.75;;;20.23;60.83
73910;BME280;62245;48.070;7.874;2023-07-02T08:28:36;98853.56;;;20.25;59.70
73910;BME280;62245;48.070;7.874;2023-07-02T08:31:03;98867.66;;;20.27;59.81
73910;BME280;62245;48.070;7.874;2023-07-02T08:33:28;98847.88;;;20.32;59.79
73910;BME280;62245;48.070;7.874;2023-07-02T08:35:53;98853.56;;;20.25;59.32
73910;BME280;62245;48.070;7.874;2023-07-02T08:38:19;98859.78;;;20.31;60.23
73910;BME280;62245;48.070;7.874;2023-07-02T08:40:44;98854.38;;;20.26;59.14
73910;BME280;62245;48.070;7.874;2023-07-02T08:43:09;98856.56;;;20.24;59.47
73910;BME280;62245;48.070;7.874;2023-07-02T08:45:35;98856.81;;;20.27;59.77
73910;BME280;62245;48.070;7.874;2023-07-02T08:48:01;98863.59;;;20.25;59.66
73910;BME280;62245;48.070;7.874;2023-07-02T08:50:26;98864.41;;;20.41;60.59
73910;BME280;62245;48.070;7.874;2023-07-02T08:52:53;98869.81;;;20.36;60.19
73910;BME280;62245;48.070;7.874;2023-07-02T08:55:18;98866.31;;;20.30;59.65
73910;BME280;62245;48.070;7.874;2023-07-02T08:57:56;98868.44;;;20.43;60.33
73910;BME280;62245;48.070;7.874;2023-07-02T09:00:27;98857.78;;;20.62;61.20
73910;BME280;62245;48.070;7.874;2023-07-02T09:02:56;98872.19;;;20.57;60.72
73910;BME280;62245;48.070;7.874;2023-07-02T09:05:21;98868.16;;;20.45;60.31
73910;BME280;62245;48.070;7.874;2023-07-02T09:07:48;98865.44;;;20.45;58.87
73910;BME280;62245;48.070;7.874;2023-07-02T09:10:33;98861.63;;;20.56;59.21
73910;BME280;62245;48.070;7.874;2023-07-02T09:13:08;98858.81;;;20.71;59.77
73910;BME280;62245;48.070;7.874;2023-07-02T09:15:43;98857.78;;;20.62;58.86
73910;BME280;62245;48.070;7.874;2023-07-02T09:20:40;98860.94;;;20.84;58.76
73910;BME280;62245;48.070;7.874;2023-07-02T09:23:05;98852.56;;;20.76;59.78
73910;BME280;62245;48.070;7.874;2023-07-02T09:25:36;98848.69;;;20.87;59.23
73910;BME280;62245;48.070;7.874;2023-07-02T09:28:02;98854.75;;;21.13;59.50
73910;BME280;62245;48.070;7.874;2023-07-02T09:30:27;98857.09;;;21.29;57.95
73910;BME280;62245;48.070;7.874;2023-07-02T09:32:53;98851.94;;;21.33;58.53
73910;BME280;62245;48.070;7.874;2023-07-02T09:35:19;98856.94;;;21.50;57.96
